x

Virginia Beach 64 Nm East Of Virginia Beach, Va (44014) Wave Buoy

1:50am - Thu 1st Sep 2016 All times are EDT. -4 hours from GMT.

  • Sig Wave height 3.3ft
  • Swell Direction
  • Peak Period 11s
  • Average Period 7s
  • Wind
    4mph
  • Sea Temp 81°f
  • Air Temp 79°f
  • Sea Pressure 1012.2mb
  • Virginia Beach 64 Nm East Of Virginia Beach, Va
  • Virginia Beach 64 Nm East Of Virginia Beach, Va

More Historic Weather Station data

Upgrade to MSW Pro to gain access to the past 30 days of data for over 8000 Wavebouys and Weather Stations around the globe.

Join Pro

Comparision Forecast

View Surf forecast
   
Thu 09/01 1:50am 3.5ft 11s 7s 4
mph
1012.2mb 81f 79f
12:50am 3.5ft 9s 7s 4 7 mph 1012.6mb 81f 79f
Wed 08/31 11:50pm 3ft 10s 7s 4 7 mph 1013mb 81f 79f
10:50pm 3ft 10s 6s 2
mph
1013mb 81f 79f
9:50pm 3.5ft 11s 7s 2 4 mph 1013.3mb 81f 80f
8:50pm 3.5ft 11s 6s  -  2 mph 1013.2mb 81f 80f
7:50pm 3.5ft 11s 6s 2 4 mph 1012.9mb 81f 80f
6:50pm 3.5ft 11s 5s 4 7 mph 1012.7mb 81f 80f
5:50pm 3.5ft 11s 5s 7 9 mph 1012.7mb 81f 80f
4:50pm 3.5ft 11s 5s 9 13 mph 1012.7mb 81f 80f
3:50pm 3.5ft 10s 5s 11 13 mph 1013mb 81f 80f
2:50pm 3.5ft 10s 5s 13 16 mph 1013.3mb 81f 80f
1:50pm 3.5ft 11s 5s 13 18 mph 1013.7mb 81f 80f
12:50pm 3.5ft 10s 5s 13 16 mph 1014.3mb 81f 80f
11:50am 3.5ft 11s 5s 13 16 mph 1014.7mb 80f 80f
10:50am 4ft 11s 5s 13 16 mph 1015.1mb 80f 80f
9:50am 4ft 10s 5s 13 16 mph 1014.7mb 80f 80f
8:50am 4ft 11s 5s 13 16 mph 1014.6mb 80f 80f
7:50am 4ft 10s 5s 13 16 mph 1014.4mb 80f 80f
6:50am 3.5ft 11s 5s 13 16 mph 1014.5mb 81f 80f
5:50am 4.5ft 11s 5s 13 16 mph 1014.5mb 80f 80f
4:50am 4.5ft 10s 5s 16 18 mph 1014.6mb 80f 80f
3:50am 4.5ft 10s 5s 16 18 mph 1014.9mb 80f 80f
2:50am 4.5ft 11s 5s 16 18 mph 1015.2mb 80f 80f
1:50am 4.5ft 11s 5s 16 18 mph 1015.4mb 80f 80f
12:50am 4.5ft 11s 6s 18 20 mph 1015.3mb 80f 80f
Tue 08/30 11:50pm 4.5ft 11s 6s 16 18 mph 1015.9mb 80f 80f
10:50pm 4.5ft 11s 6s 11 13 mph 1016.3mb 80f 80f
9:50pm 4.5ft 11s 6s 9 11 mph 1016.4mb 80f 79f
8:50pm 4.5ft 11s 6s 13 18 mph 1016.3mb 80f 80f
7:50pm 4.5ft 11s 6s 16 18 mph 1016mb 80f 80f
6:50pm 4.5ft 11s 6s 16 18 mph 1015.8mb 81f 81f
5:50pm 4ft 11s 6s 11 13 mph 1016mb 81f 81f
4:50pm 4.5ft 11s 6s 9 11 mph 1016.3mb 81f 81f
3:50pm 4.5ft 11s 6s 9 11 mph 1016.3mb 81f 80f
2:50pm 5ft 12s 7s 4 7 mph 1017.1mb 81f 79f
1:50pm 5ft 12s 5s 11 16 mph 1018.1mb 81f 79f
12:50pm 5ft 11s 6s 16 18 mph 1018mb 81f 80f
11:50am 5ft 12s 6s 13 16 mph 1018.2mb 80f 80f
10:50am 5.5ft 12s 6s 16 18 mph 1018.5mb 80f 80f
9:50am 5.5ft 11s 6s 18 20 mph 1018.1mb 80f 80f
8:50am 5ft 13s 6s 16 20 mph 1018mb 80f 81f
7:50am 5ft 12s 6s 16 18 mph 1017.8mb 80f 80f
6:50am 5ft 13s 6s 16 18 mph 1017.6mb 80f 80f
5:50am 5ft 12s 6s 16 18 mph 1016.9mb 80f 79f
4:50am 5ft 12s 6s 16 20 mph 1016.4mb 80f 79f
3:50am 5ft 12s 7s 16 18 mph 1016.9mb 80f 79f
2:50am 5.5ft 12s 7s 13 16 mph 1017.1mb 80f 80f
1:50am 5ft 12s 6s 13
mph
1017.4mb 80f 80f
12:50am 4.5ft 12s 6s 13 16 mph 1018.1mb 80f 80f
Mon 08/29 11:50pm 4.5ft 12s 6s 16 18 mph 1018.1mb 80f 80f
10:50pm 4ft 13s 6s 16 18 mph 1018mb 81f 80f
9:50pm 4.5ft 13s 6s 13
mph
1018mb 81f 80f
8:50pm 4.5ft 12s 6s 13 16 mph 1018mb 81f 80f
7:50pm 4.5ft 13s 6s 16 18 mph 1017.9mb 81f 79f
6:50pm 4.5ft 13s 5s 16 18 mph 1018mb 81f 79f
5:50pm 5ft 13s  -  16 20 mph 1018mb 81f 79f
4:50pm 5ft 13s 6s 16 18 mph 1018mb 81f 79f
3:50pm 4ft 13s 5s 16 18 mph 1017.8mb 81f 79f
2:50pm 5ft 13s 5s 13 16 mph 1018.1mb 81f 79f
1:50pm 5ft 13s 5s 16 18 mph 1018.9mb 81f 79f
12:50pm 5ft 9s 5s 16 20 mph 1019.1mb 81f 79f
11:50am 5ft 9s 5s 20 22 mph 1019.3mb 81f 80f
10:50am 4.5ft 8s 5s 18 20 mph 1019.4mb 81f 80f
9:50am 4ft 8s 5s 18 20 mph 1019.2mb 81f 80f
8:50am 4.5ft 9s 6s 16 18 mph 1018.7mb 81f 80f
7:50am 4.5ft 8s 6s 13 18 mph 1018.6mb 80f 81f
6:50am 4ft 8s 6s 11 13 mph 1018.3mb 80f 80f
5:50am 4ft 8s 5s 9 13 mph 1018.2mb 80f 78f
4:50am 3.5ft 8s 5s 9
mph
1018.5mb 80f 76f
3:50am 3.5ft 8s 5s 11 16 mph 1018.8mb 81f 77f
2:50am 4ft 8s 5s 11 13 mph 1018.9mb 81f 78f
1:50am 3.5ft 8s 5s 11 13 mph 1019.1mb 81f 80f
12:50am 4ft 8s 5s 13 16 mph 1019mb 81f 79f
Sun 08/28 11:50pm 4.5ft 8s 5s 9 11 mph 1019.1mb 81f 78f
10:50pm 4.5ft 6s 5s 13 16 mph 1019.1mb 81f 80f
9:50pm 4.5ft 6s 5s 16 20 mph 1019.3mb 81f 80f
8:50pm 5ft 6s 5s 16 18 mph 1019.2mb 81f 81f
7:50pm 5ft 8s 5s 20 22 mph 1018.7mb 81f 80f
6:50pm 4.5ft 8s 5s 18 22 mph 1018.6mb 82f 81f
5:50pm 4.5ft 8s 5s 20 22 mph 1018.7mb 82f 80f
4:50pm 4.5ft 6s 5s 20 22 mph 1019.2mb 82f 81f
3:50pm 4ft 8s 4s 20 25 mph 1019.5mb 82f 81f
2:50pm 4ft 8s 4s 18 22 mph 1020.2mb 81f 81f
1:50pm 3.5ft 6s 4s 18 20 mph 1020.7mb 81f 81f
12:50pm 3.5ft 6s 4s 18 20 mph 1021.2mb 81f 81f
11:50am 4ft 6s 4s 13 18 mph 1021mb 81f 81f
10:50am 4.5ft 6s 4s 18 20 mph 1020.9mb 81f 81f
9:50am 4.5ft 6s 5s 13 18 mph 1020.8mb 81f 82f
8:50am 4ft 6s 5s 16 20 mph 1020.4mb 81f 81f
7:50am 4ft 5s 5s 16 18 mph 1020.1mb 81f 81f